createdAt,value
2018-04-30T00:01:05.551Z,11.60
2018-04-30T00:03:32.127Z,11.70
2018-04-30T00:05:58.713Z,11.70
2018-04-30T00:08:25.342Z,11.80
2018-04-30T00:10:52.839Z,11.80
2018-04-30T00:13:19.381Z,11.80
2018-04-30T00:15:45.923Z,11.80
2018-04-30T00:18:13.648Z,11.80
2018-04-30T00:20:40.257Z,11.80
2018-04-30T00:23:06.925Z,11.80
2018-04-30T00:25:33.511Z,11.80
2018-04-30T00:28:00.273Z,11.90
2018-04-30T00:30:26.945Z,11.80
2018-04-30T00:32:54.264Z,11.80
2018-04-30T00:35:20.821Z,11.80
2018-04-30T00:37:47.424Z,11.90
2018-04-30T00:40:14.053Z,11.90
2018-04-30T00:42:40.616Z,11.90
2018-04-30T00:45:07.135Z,11.90
2018-04-30T00:47:33.761Z,11.90
2018-04-30T00:50:00.355Z,11.90
2018-04-30T00:52:26.876Z,11.80
2018-04-30T00:54:59.539Z,11.90
2018-04-30T00:57:26.210Z,11.90
2018-04-30T00:59:52.861Z,11.90
2018-04-30T01:02:20.227Z,11.90
2018-04-30T01:04:47.531Z,11.90
2018-04-30T01:07:14.185Z,11.90
2018-04-30T01:09:41.976Z,11.90
2018-04-30T01:12:10.307Z,11.80
2018-04-30T01:14:36.974Z,11.80
2018-04-30T01:17:03.743Z,11.80
2018-04-30T01:19:30.980Z,11.80
2018-04-30T01:21:57.684Z,11.80
2018-04-30T01:24:24.226Z,11.70
2018-04-30T01:26:50.837Z,11.70
2018-04-30T01:29:17.388Z,11.60
2018-04-30T01:31:43.942Z,11.60
2018-04-30T01:34:10.615Z,11.60
2018-04-30T01:36:37.887Z,11.70
2018-04-30T01:39:04.547Z,11.70
2018-04-30T01:41:31.149Z,11.70
2018-04-30T01:43:58.441Z,11.70
2018-04-30T01:46:25.049Z,11.70
2018-04-30T01:48:51.673Z,11.60
2018-04-30T01:51:18.969Z,11.60
2018-04-30T01:53:45.541Z,11.60
2018-04-30T01:56:12.863Z,11.60
2018-04-30T01:58:39.574Z,11.60
2018-04-30T02:01:06.241Z,11.50
2018-04-30T02:03:32.888Z,11.60
2018-04-30T02:05:59.526Z,11.60
2018-04-30T02:08:29.258Z,11.50
2018-04-30T02:10:55.822Z,11.50
2018-04-30T02:13:23.109Z,11.60
2018-04-30T02:15:49.672Z,11.50
2018-04-30T02:18:16.227Z,11.50
2018-04-30T02:20:42.795Z,11.50
2018-04-30T02:23:10.168Z,11.50
2018-04-30T02:25:36.727Z,11.50
2018-04-30T02:28:03.474Z,11.50
2018-04-30T02:30:30.141Z,11.50
2018-04-30T02:32:56.809Z,11.50
2018-04-30T02:35:23.471Z,11.40
2018-04-30T02:37:53.719Z,11.40
2018-04-30T02:40:20.303Z,11.40
2018-04-30T02:42:47.635Z,11.40
2018-04-30T02:45:14.325Z,11.40
2018-04-30T02:47:40.943Z,11.40
2018-04-30T02:50:07.574Z,11.40
2018-04-30T02:52:34.129Z,11.40
2018-04-30T02:55:01.603Z,11.40
2018-04-30T02:57:28.203Z,11.30
2018-04-30T02:59:55.523Z,11.30
2018-04-30T03:02:22.253Z,11.30
2018-04-30T03:04:48.933Z,11.30
2018-04-30T03:07:17.229Z,11.30
2018-04-30T03:09:43.853Z,11.30
2018-04-30T03:12:10.381Z,11.30
2018-04-30T03:14:37.054Z,11.40
2018-04-30T03:17:03.674Z,11.40
2018-04-30T03:19:30.236Z,11.40
2018-04-30T03:21:56.740Z,11.50
2018-04-30T03:24:23.259Z,11.40
2018-04-30T03:26:50.695Z,11.50
2018-04-30T03:29:17.265Z,11.50
2018-04-30T03:31:43.902Z,11.50
2018-04-30T03:34:10.594Z,11.50
2018-04-30T03:36:37.176Z,11.50
2018-04-30T03:39:04.708Z,11.50
2018-04-30T03:41:31.307Z,11.60
2018-04-30T03:43:58.740Z,11.60
2018-04-30T03:46:26.215Z,11.60
2018-04-30T03:48:52.876Z,11.70
2018-04-30T03:51:20.338Z,11.70
2018-04-30T03:53:46.994Z,11.60
2018-04-30T03:56:13.678Z,11.60
2018-04-30T03:58:40.330Z,11.60
2018-04-30T04:01:19.059Z,11.60
2018-04-30T04:03:57.540Z,11.60
2018-04-30T04:06:36.913Z,11.60
2018-04-30T04:09:04.536Z,11.60
2018-04-30T04:11:31.922Z,11.60
2018-04-30T04:13:58.548Z,11.60
2018-04-30T04:16:25.176Z,11.70
2018-04-30T04:18:51.843Z,11.60
2018-04-30T04:21:19.338Z,11.60
2018-04-30T04:23:45.910Z,11.60
2018-04-30T04:26:12.523Z,11.60
2018-04-30T04:28:39.836Z,11.60
2018-04-30T04:31:06.512Z,11.60
2018-04-30T04:33:33.044Z,11.70
2018-04-30T04:35:59.595Z,11.70
2018-04-30T04:38:26.917Z,11.70
2018-04-30T04:40:53.556Z,11.70
2018-04-30T04:43:20.910Z,11.80
2018-04-30T04:45:47.490Z,11.80
2018-04-30T04:48:14.367Z,11.80
2018-04-30T04:50:40.969Z,11.80
2018-04-30T04:53:07.444Z,11.90
2018-04-30T04:55:34.209Z,11.90
2018-04-30T04:58:02.069Z,11.90
2018-04-30T05:00:28.663Z,11.90
2018-04-30T05:02:55.215Z,11.90
2018-04-30T05:05:21.854Z,11.90
2018-04-30T05:07:48.434Z,11.80
2018-04-30T05:10:15.057Z,11.80
2018-04-30T05:12:42.371Z,11.70
2018-04-30T05:15:09.000Z,11.70
2018-04-30T05:17:36.227Z,11.70
2018-04-30T05:20:02.923Z,11.70
2018-04-30T05:22:29.518Z,11.60
2018-04-30T05:24:56.090Z,11.60
2018-04-30T05:27:22.727Z,11.60
2018-04-30T05:29:49.468Z,11.50
2018-04-30T05:32:16.141Z,11.50
2018-04-30T05:34:42.766Z,11.50
2018-04-30T05:37:11.272Z,11.60
2018-04-30T05:39:38.680Z,11.50
2018-04-30T05:42:05.306Z,11.50
2018-04-30T05:44:31.923Z,11.50
2018-04-30T05:46:59.262Z,11.50
2018-04-30T05:49:25.930Z,11.40
2018-04-30T05:51:52.657Z,11.50
2018-04-30T05:54:19.177Z,11.50
2018-04-30T05:56:46.635Z,11.50
2018-04-30T05:59:13.182Z,11.50
2018-04-30T06:01:39.677Z,11.40
2018-04-30T06:04:06.255Z,11.40
2018-04-30T06:06:32.897Z,11.50
2018-04-30T06:09:00.390Z,11.50
2018-04-30T06:11:27.677Z,11.60
2018-04-30T06:13:54.226Z,11.70
2018-04-30T06:16:20.748Z,11.80
2018-04-30T06:18:47.354Z,11.90
2018-04-30T06:21:13.938Z,11.90
2018-04-30T06:23:41.335Z,12.30
2018-04-30T06:26:07.895Z,12.20
2018-04-30T06:28:34.488Z,12.30
2018-04-30T06:31:01.717Z,12.20
2018-04-30T06:33:28.275Z,12.10
2018-04-30T06:35:54.989Z,12.10
2018-04-30T06:38:23.033Z,12.10
2018-04-30T06:40:49.532Z,12.00
2018-04-30T06:43:16.798Z,12.00
2018-04-30T06:45:43.439Z,12.00
2018-04-30T06:48:10.000Z,12.00
2018-04-30T06:50:36.639Z,11.80
2018-04-30T06:53:04.001Z,11.70
2018-04-30T06:55:30.565Z,11.70
2018-04-30T06:57:57.145Z,11.70
2018-04-30T07:00:23.705Z,11.80
2018-04-30T07:02:51.028Z,12.00
2018-04-30T07:05:17.684Z,11.90
2018-04-30T07:07:47.988Z,11.90
2018-04-30T07:10:14.505Z,11.90
2018-04-30T07:12:41.818Z,11.90
2018-04-30T07:15:09.844Z,11.80
2018-04-30T07:17:42.236Z,11.80
2018-04-30T07:20:08.788Z,11.90
2018-04-30T07:22:35.342Z,12.10
2018-04-30T07:25:01.897Z,12.10
2018-04-30T07:27:28.412Z,12.10
2018-04-30T07:29:55.003Z,12.30
2018-04-30T07:32:21.523Z,12.20
2018-04-30T07:34:48.882Z,12.30
2018-04-30T07:37:15.503Z,12.30
2018-04-30T07:39:42.203Z,12.20
2018-04-30T07:42:08.960Z,12.30
2018-04-30T07:44:35.602Z,12.40
2018-04-30T07:47:02.263Z,12.30
2018-04-30T07:49:28.852Z,12.30
2018-04-30T07:51:55.452Z,12.40
2018-04-30T07:54:21.998Z,12.50
2018-04-30T07:56:49.321Z,12.40
2018-04-30T07:59:15.951Z,12.40
2018-04-30T08:01:42.684Z,12.30
2018-04-30T08:04:09.283Z,12.20
2018-04-30T08:06:35.910Z,12.10
2018-04-30T08:09:03.324Z,11.90
2018-04-30T08:11:29.936Z,11.90
2018-04-30T08:13:56.607Z,11.90
2018-04-30T08:16:23.238Z,12.00
2018-04-30T08:18:50.510Z,12.10
2018-04-30T08:21:17.951Z,12.10
2018-04-30T08:23:45.451Z,12.10
2018-04-30T08:26:12.131Z,12.10
2018-04-30T08:28:38.840Z,12.00
2018-04-30T08:31:05.560Z,12.10
2018-04-30T08:33:32.912Z,12.00
2018-04-30T08:35:59.514Z,12.00
2018-04-30T08:38:29.280Z,12.10
2018-04-30T08:40:56.053Z,12.30
2018-04-30T08:43:23.379Z,12.80
2018-04-30T08:45:50.067Z,12.80
2018-04-30T08:48:16.698Z,12.90
2018-04-30T08:50:43.262Z,12.80
2018-04-30T08:53:09.889Z,13.30
2018-04-30T08:55:37.300Z,13.40
2018-04-30T08:58:03.963Z,13.60
2018-04-30T09:00:30.611Z,13.70
2018-04-30T09:02:57.314Z,13.70
2018-04-30T09:05:23.847Z,13.40
2018-04-30T09:07:50.311Z,13.10
2018-04-30T09:10:16.763Z,13.00
2018-04-30T09:12:43.208Z,12.90
2018-04-30T09:15:09.666Z,13.20
2018-04-30T09:17:36.848Z,13.10
2018-04-30T09:20:03.316Z,13.10
2018-04-30T09:22:30.504Z,12.90
2018-04-30T09:24:56.963Z,12.90
2018-04-30T09:27:23.415Z,12.90
2018-04-30T09:29:49.865Z,12.90
2018-04-30T09:32:17.084Z,13.00
2018-04-30T09:34:43.559Z,13.00
2018-04-30T09:37:10.058Z,13.00
2018-04-30T09:39:36.526Z,13.00
2018-04-30T09:42:03.797Z,13.20
2018-04-30T09:44:30.249Z,13.20
2018-04-30T09:46:56.714Z,13.30
2018-04-30T09:49:23.160Z,13.60
2018-04-30T09:51:49.612Z,13.80
2018-04-30T09:54:16.122Z,14.20
2018-04-30T09:56:42.585Z,14.30
2018-04-30T09:59:09.808Z,14.10
2018-04-30T10:01:36.266Z,14.10
2018-04-30T10:04:03.470Z,13.70
2018-04-30T10:06:29.985Z,13.60
2018-04-30T10:08:56.443Z,13.70
2018-04-30T10:11:22.917Z,13.70
2018-04-30T10:13:49.375Z,13.70
2018-04-30T10:16:15.834Z,13.70
2018-04-30T10:18:42.307Z,13.80
2018-04-30T10:21:08.747Z,13.90
2018-04-30T10:23:36.078Z,14.10
2018-04-30T10:26:02.456Z,14.00
2018-04-30T10:28:28.962Z,14.10
2018-04-30T10:30:55.431Z,14.30
2018-04-30T10:33:21.903Z,14.40
2018-04-30T10:35:48.364Z,14.30
2018-04-30T10:38:14.838Z,14.10
2018-04-30T10:40:41.319Z,13.70
2018-04-30T10:43:08.516Z,13.60
2018-04-30T10:45:34.997Z,13.60
2018-04-30T10:48:01.534Z,13.70
2018-04-30T10:50:28.006Z,14.10
2018-04-30T10:52:55.208Z,14.40
2018-04-30T10:55:21.637Z,14.40
2018-04-30T10:57:48.127Z,14.50
2018-04-30T11:00:15.330Z,14.90
2018-04-30T11:02:41.846Z,14.80
2018-04-30T11:05:09.008Z,14.80
2018-04-30T11:07:35.476Z,14.80
2018-04-30T11:10:01.954Z,14.20
2018-04-30T11:12:28.510Z,14.00
2018-04-30T11:14:54.876Z,14.10
2018-04-30T11:17:21.312Z,14.30
2018-04-30T11:19:47.743Z,14.90
2018-04-30T11:22:14.930Z,15.60
2018-04-30T11:24:42.135Z,15.40
2018-04-30T11:27:08.617Z,15.40
2018-04-30T11:29:35.096Z,15.00
2018-04-30T11:32:01.540Z,14.70
2018-04-30T11:34:27.989Z,14.40
2018-04-30T11:36:54.435Z,14.30
2018-04-30T11:39:20.901Z,14.20
2018-04-30T11:41:47.349Z,14.10
2018-04-30T11:44:13.802Z,14.00
2018-04-30T11:46:40.248Z,14.00
2018-04-30T11:49:06.778Z,14.00
2018-04-30T11:51:33.325Z,14.10
2018-04-30T11:53:59.778Z,14.20
2018-04-30T11:56:26.987Z,14.10
2018-04-30T11:58:53.437Z,14.10
2018-04-30T12:01:19.941Z,14.40
2018-04-30T12:03:46.411Z,14.60
2018-04-30T12:06:12.834Z,14.50
2018-04-30T12:08:39.263Z,14.40
2018-04-30T12:11:05.729Z,14.20
2018-04-30T12:13:32.188Z,14.00
2018-04-30T12:15:58.663Z,13.80
2018-04-30T12:18:25.192Z,13.70
2018-04-30T12:20:51.661Z,13.60
2018-04-30T12:23:18.115Z,13.50
2018-04-30T12:25:45.344Z,13.50
2018-04-30T12:28:11.872Z,13.60
2018-04-30T12:30:38.379Z,13.70
2018-04-30T12:33:04.853Z,14.00
2018-04-30T12:35:32.064Z,14.40
2018-04-30T12:37:58.530Z,14.40
2018-04-30T12:40:24.976Z,14.50
2018-04-30T12:42:51.445Z,14.20
2018-04-30T12:45:17.910Z,14.10
2018-04-30T12:47:44.344Z,13.90
2018-04-30T12:50:10.798Z,13.80
2018-04-30T12:52:37.266Z,13.40
2018-04-30T12:55:04.488Z,13.00
2018-04-30T12:57:31.706Z,13.00
2018-04-30T12:59:58.232Z,13.00
2018-04-30T13:02:24.744Z,13.00
2018-04-30T13:04:51.170Z,13.30
2018-04-30T13:07:18.372Z,13.50
2018-04-30T13:09:44.817Z,13.50
2018-04-30T13:12:11.271Z,13.30
2018-04-30T13:14:38.484Z,13.20
2018-04-30T13:17:04.965Z,13.20
2018-04-30T13:19:31.409Z,13.20
2018-04-30T13:21:57.845Z,13.30
2018-04-30T13:24:24.280Z,13.40
2018-04-30T13:26:51.501Z,13.40
2018-04-30T13:29:17.977Z,13.30
2018-04-30T13:31:45.162Z,13.30
2018-04-30T13:34:11.615Z,13.30
2018-04-30T13:36:38.112Z,13.20
2018-04-30T13:39:04.617Z,12.90
2018-04-30T13:41:31.107Z,12.70
2018-04-30T13:43:57.540Z,12.70
2018-04-30T13:46:23.975Z,12.90
2018-04-30T13:48:50.485Z,12.90
2018-04-30T13:51:16.921Z,12.90
2018-04-30T13:53:43.352Z,12.90
2018-04-30T13:56:09.838Z,13.20
2018-04-30T13:58:37.029Z,13.90
2018-04-30T14:01:03.470Z,13.80
2018-04-30T14:03:29.909Z,13.60
2018-04-30T14:05:56.331Z,13.70
2018-04-30T14:08:22.811Z,13.60
2018-04-30T14:10:49.257Z,13.50
2018-04-30T14:13:16.775Z,13.40
2018-04-30T14:15:43.252Z,13.30
2018-04-30T14:18:09.767Z,13.20
2018-04-30T14:20:36.986Z,13.40
2018-04-30T14:23:03.457Z,13.40
2018-04-30T14:25:31.396Z,13.00
2018-04-30T14:27:58.070Z,13.00
2018-04-30T14:30:24.730Z,13.10
2018-04-30T14:32:51.218Z,13.00
2018-04-30T14:35:17.701Z,12.80
2018-04-30T14:37:44.212Z,12.70
2018-04-30T14:40:10.711Z,12.50
2018-04-30T14:42:37.250Z,12.30
2018-04-30T14:45:03.711Z,12.00
2018-04-30T14:47:31.178Z,11.70
2018-04-30T14:49:57.628Z,11.70
2018-04-30T14:52:24.810Z,11.40
2018-04-30T14:54:51.619Z,11.40
2018-04-30T14:57:26.845Z,11.30
2018-04-30T14:59:53.273Z,11.30
2018-04-30T15:02:20.037Z,11.30
2018-04-30T15:04:46.480Z,11.20
2018-04-30T15:07:17.293Z,11.10
2018-04-30T15:09:44.507Z,11.00
2018-04-30T15:12:10.936Z,11.00
2018-04-30T15:14:38.122Z,10.80
2018-04-30T15:17:29.865Z,10.80
2018-04-30T15:19:57.034Z,10.60
2018-04-30T15:22:23.466Z,10.50
2018-04-30T15:24:49.914Z,10.40
2018-04-30T15:27:17.408Z,10.20
2018-04-30T15:29:43.876Z,9.90
2018-04-30T15:32:10.296Z,9.70
2018-04-30T15:34:37.463Z,9.60
2018-04-30T15:37:19.153Z,9.60
2018-04-30T15:39:46.344Z,9.50
2018-04-30T15:42:12.815Z,9.50
2018-04-30T15:44:39.236Z,9.20
2018-04-30T15:47:25.768Z,9.30
2018-04-30T15:49:52.950Z,9.30
2018-04-30T15:52:19.392Z,9.30
2018-04-30T15:54:45.845Z,9.40
2018-04-30T15:57:18.851Z,9.40
2018-04-30T15:59:45.302Z,9.40
2018-04-30T16:02:13.245Z,9.00
2018-04-30T16:04:39.708Z,9.00
2018-04-30T16:07:09.083Z,9.10
2018-04-30T16:09:35.538Z,9.10
2018-04-30T16:12:01.959Z,9.00
2018-04-30T16:14:29.140Z,8.90
2018-04-30T16:17:06.696Z,8.90
2018-04-30T16:19:33.141Z,9.00
2018-04-30T16:21:59.662Z,8.70
2018-04-30T16:24:26.192Z,8.50
2018-04-30T16:26:52.639Z,8.40
2018-04-30T16:29:19.096Z,8.40
2018-04-30T16:31:46.293Z,8.10
2018-04-30T16:34:12.782Z,8.10
2018-04-30T16:36:40.015Z,8.00
2018-04-30T16:39:12.597Z,8.00
2018-04-30T16:41:39.122Z,8.00
2018-04-30T16:44:06.355Z,7.80
2018-04-30T16:46:32.796Z,7.80
2018-04-30T16:48:59.240Z,7.90
2018-04-30T16:51:25.740Z,7.80
2018-04-30T16:53:52.186Z,7.70
2018-04-30T16:56:18.625Z,7.60
2018-04-30T16:58:59.632Z,7.70
2018-04-30T17:01:26.104Z,7.80
2018-04-30T17:03:52.551Z,7.70
2018-04-30T17:06:18.996Z,7.60
2018-04-30T17:08:46.573Z,7.60
2018-04-30T17:11:12.992Z,7.60
2018-04-30T17:13:39.425Z,7.50
2018-04-30T17:16:05.889Z,7.50
2018-04-30T17:18:39.282Z,7.40
2018-04-30T17:21:05.768Z,7.50
2018-04-30T17:23:32.190Z,7.50
2018-04-30T17:25:59.404Z,7.60
2018-04-30T17:28:31.976Z,7.60
2018-04-30T17:30:58.412Z,7.50
2018-04-30T17:33:24.840Z,7.40
2018-04-30T17:35:51.280Z,7.40
2018-04-30T17:38:19.815Z,7.50
2018-04-30T17:40:46.278Z,7.50
2018-04-30T17:43:12.721Z,7.40
2018-04-30T17:45:39.225Z,7.40
2018-04-30T17:48:20.083Z,7.50
2018-04-30T17:50:47.327Z,7.40
2018-04-30T17:53:14.575Z,7.40
2018-04-30T17:55:41.788Z,7.40
2018-04-30T17:58:15.187Z,7.40
2018-04-30T18:00:41.654Z,7.40
2018-04-30T18:03:08.854Z,7.50
2018-04-30T18:05:35.284Z,7.50
2018-04-30T18:08:02.807Z,7.60
2018-04-30T18:10:30.002Z,7.60
2018-04-30T18:12:56.427Z,7.50
2018-04-30T18:15:22.878Z,7.50
2018-04-30T18:17:53.059Z,7.60
2018-04-30T18:20:20.297Z,7.50
2018-04-30T18:22:47.490Z,7.50
2018-04-30T18:25:13.999Z,7.50
2018-04-30T18:27:57.382Z,7.50
2018-04-30T18:30:23.857Z,7.50
2018-04-30T18:32:50.518Z,7.50
2018-04-30T18:35:17.266Z,7.40
2018-04-30T18:37:45.073Z,7.30
2018-04-30T18:40:11.735Z,7.40
2018-04-30T18:42:38.354Z,7.30
2018-04-30T18:45:04.922Z,7.30
2018-04-30T18:47:32.249Z,7.30
2018-04-30T18:59:53.242Z,7.30
2018-04-30T19:02:19.956Z,7.30
2018-04-30T19:04:48.158Z,7.40
2018-04-30T19:07:19.263Z,7.40
2018-04-30T19:09:45.828Z,7.40
2018-04-30T19:12:13.154Z,7.50
2018-04-30T19:14:40.203Z,7.50
2018-04-30T19:17:17.183Z,7.50
2018-04-30T19:19:43.719Z,7.50
2018-04-30T19:22:10.332Z,7.50
2018-04-30T19:24:36.941Z,7.50
2018-04-30T19:27:17.144Z,7.50
2018-04-30T19:29:44.749Z,7.50
2018-04-30T19:32:12.854Z,7.50
2018-04-30T19:34:39.428Z,7.40
2018-04-30T19:37:06.281Z,7.50
2018-04-30T19:39:33.572Z,7.40
2018-04-30T19:42:00.144Z,7.50
2018-04-30T19:44:26.715Z,7.40
2018-04-30T19:47:04.663Z,7.40
2018-04-30T19:49:31.929Z,7.40
2018-04-30T19:51:58.594Z,7.40
2018-04-30T19:54:25.216Z,7.50
2018-04-30T19:57:00.988Z,7.50
2018-04-30T19:59:27.634Z,7.50
2018-04-30T20:01:54.228Z,7.60
2018-04-30T20:04:20.991Z,7.50
2018-04-30T20:06:48.941Z,7.60
2018-04-30T20:09:16.526Z,7.60
2018-04-30T20:11:43.153Z,7.60
2018-04-30T20:14:09.740Z,7.70
2018-04-30T20:16:36.267Z,7.70
2018-04-30T20:19:07.247Z,7.80
2018-04-30T20:21:33.840Z,7.80
2018-04-30T20:24:01.202Z,7.80
2018-04-30T20:26:27.888Z,7.80
2018-04-30T20:42:02.185Z,7.80
2018-04-30T20:44:29.017Z,7.70
2018-04-30T20:46:55.686Z,7.60
2018-04-30T20:49:22.495Z,7.60
2018-04-30T20:51:49.091Z,7.60
2018-04-30T20:54:15.804Z,7.60
2018-04-30T20:56:42.491Z,7.50
2018-04-30T20:59:10.572Z,7.50
2018-04-30T21:01:37.083Z,7.50
2018-04-30T21:04:03.667Z,7.50
2018-04-30T21:06:30.355Z,7.50
2018-04-30T21:09:14.928Z,7.50
2018-04-30T21:11:42.282Z,7.50
2018-04-30T21:14:09.199Z,7.50
2018-04-30T21:16:35.812Z,7.50
2018-04-30T21:19:06.488Z,7.50
2018-04-30T21:21:32.990Z,7.50
2018-04-30T21:23:59.518Z,7.50
2018-04-30T21:26:26.267Z,7.50
2018-04-30T21:29:13.026Z,7.50
2018-04-30T21:31:40.357Z,7.50
2018-04-30T21:34:07.328Z,7.50
2018-04-30T21:36:34.598Z,7.40
2018-04-30T21:39:11.674Z,7.50
2018-04-30T21:41:38.147Z,7.50
2018-04-30T21:44:05.393Z,7.40
2018-04-30T21:46:31.857Z,7.40
2018-04-30T21:48:58.434Z,7.40
2018-04-30T21:51:25.065Z,7.40
2018-04-30T21:53:52.347Z,7.40
2018-04-30T21:56:19.590Z,7.40
2018-04-30T21:58:46.248Z,7.40
2018-04-30T22:01:12.857Z,7.40
2018-04-30T22:03:39.450Z,7.40
2018-04-30T22:06:05.955Z,7.30
2018-04-30T22:08:32.559Z,7.30
2018-04-30T22:10:59.157Z,7.30
2018-04-30T22:13:25.665Z,7.30
2018-04-30T22:15:52.242Z,7.30
2018-04-30T22:18:22.159Z,7.20
2018-04-30T22:20:48.664Z,7.20
2018-04-30T22:23:15.137Z,7.20
2018-04-30T22:25:41.630Z,7.20
2018-04-30T22:28:16.571Z,7.20
2018-04-30T22:30:43.116Z,7.10
2018-04-30T22:33:11.036Z,7.20
2018-04-30T22:35:37.506Z,7.10
2018-04-30T22:38:04.344Z,7.10
2018-04-30T22:40:30.874Z,7.10
2018-04-30T22:42:57.417Z,7.10
2018-04-30T22:45:23.902Z,7.10
2018-04-30T22:47:58.631Z,7.10
2018-04-30T22:50:25.890Z,7.10
2018-04-30T22:52:54.408Z,7.10
2018-04-30T22:55:20.986Z,7.10
2018-04-30T22:57:53.497Z,7.10
2018-04-30T23:00:20.998Z,7.10
2018-04-30T23:02:47.472Z,7.10
2018-04-30T23:05:14.647Z,7.00
2018-04-30T23:07:52.049Z,7.00
2018-04-30T23:10:18.808Z,7.10
2018-04-30T23:12:45.316Z,7.10
2018-04-30T23:15:11.845Z,7.10
2018-04-30T23:17:40.438Z,7.10
2018-04-30T23:20:06.996Z,7.00
2018-04-30T23:22:36.243Z,7.00
2018-04-30T23:25:02.729Z,7.00
2018-04-30T23:27:32.532Z,7.00
2018-04-30T23:29:59.083Z,7.00
2018-04-30T23:32:25.579Z,7.00
2018-04-30T23:34:52.116Z,7.00
2018-04-30T23:37:20.500Z,7.00
2018-04-30T23:39:46.962Z,6.90
2018-04-30T23:42:13.482Z,7.00
2018-04-30T23:44:40.738Z,6.90
2018-04-30T23:47:11.320Z,6.90
2018-04-30T23:49:39.252Z,6.90
2018-04-30T23:52:05.760Z,6.90
2018-04-30T23:54:32.226Z,6.90
2018-04-30T23:57:06.498Z,6.90
2018-04-30T23:59:32.984Z,6.90
